Terminal Aerodrome Forecast
Issued by NWS

Home | Current Version | Previous Version | Text Only | Print | Product List | Glossary On
Versions: 1 2 3 4 5 6 7 8 9 10 11 12
000
FTUS45 KFGZ 192334
TAFPGA
TAF
KPGA 192334Z 2000/2024 VRB05KT P6SM -SHRA BKN050 OVC080
      TEMPO 2002/2006 5SM -SHRA BR BKN040 OVC050
     FM201500 23009KT P6SM BKN045=

USA.gov is the U.S. government's official web portal to all federal, state and local government web resources and services.